Time;durP1;ratioP1;P1;durP2;ratioP2;P2;SDS_P1;SDS_P2;PMS_P1;PMS_P2;Temp;Humidity;BMP_temperature;BMP_pressure;BME280_temperature;BME280_humidity;BME280_pressure;Samples;Min_cycle;Max_cycle;Signal;HPM_P1;HPM_P2
2023/05/26 00:00:40;;;;;;;;;;;;;;;20.55;68.64;98907.75;2085523;28;19924;-50
2023/05/26 00:01:40;;;;;;;;;;;;;;;20.57;68.70;98910.25;2085765;28;19928;-47
2023/05/26 00:02:42;;;;;;;;;;;;;;;20.55;68.78;98902.34;2086834;28;19924;-47
2023/05/26 00:03:44;;;;;;;;;;;;;;;20.56;68.91;98906.72;2087732;28;19924;-52
2023/05/26 00:04:46;;;;;;;;;;;;;;;20.56;68.91;98909.41;2086075;28;20374;-49
2023/05/26 00:05:46;;;;;;;;;;;;;;;20.56;68.94;98912.09;2087034;28;20336;-50
2023/05/26 00:06:52;;;;;;;;;;;;;;;20.55;68.92;98910.44;2087169;28;19925;-51
2023/05/26 00:07:53;;;;;;;;;;;;;;;20.55;68.96;98907.75;2088612;28;19924;-50
2023/05/26 00:08:54;;;;;;;;;;;;;;;20.55;68.83;98906.91;2087218;28;19962;-49
2023/05/26 00:09:55;;;;;;;;;;;;;;;20.55;68.59;98902.34;2084876;28;20416;-47
2023/05/26 00:10:57;;;;;;;;;;;;;;;20.55;68.62;98902.34;2084695;28;20390;-46
2023/05/26 00:11:57;;;;;;;;;;;;;;;20.55;68.82;98906.91;2087036;28;19920;-47
2023/05/26 00:12:59;;;;;;;;;;;;;;;20.55;68.53;98910.44;2084548;28;19924;-46
2023/05/26 00:13:59;;;;;;;;;;;;;;;20.55;68.89;98906.91;2081549;28;19924;-47
2023/05/26 00:15:02;;;;;;;;;;;;;;;20.54;68.57;98903.41;2089808;28;19925;-48
2023/05/26 00:16:03;;;;;;;;;;;;;;;20.55;68.81;98904.22;2084128;28;19924;-47
2023/05/26 00:17:06;;;;;;;;;;;;;;;20.55;68.61;98902.34;2089330;28;20318;-47
2023/05/26 00:18:07;;;;;;;;;;;;;;;20.55;69.00;98904.22;2090783;28;19928;-47
2023/05/26 00:19:09;;;;;;;;;;;;;;;20.54;68.84;98906.09;2087077;28;20067;-47
2023/05/26 00:20:10;;;;;;;;;;;;;;;20.54;68.81;98908.78;2082320;28;19928;-47
2023/05/26 00:21:12;;;;;;;;;;;;;;;20.53;68.60;98909.81;2084596;28;19924;-48
2023/05/26 00:22:14;;;;;;;;;;;;;;;20.54;68.82;98908.78;2087310;28;19981;-46
2023/05/26 00:23:16;;;;;;;;;;;;;;;20.52;68.49;98908.94;2084792;28;20023;-46
2023/05/26 00:24:16;;;;;;;;;;;;;;;20.53;68.55;98907.13;2086965;28;20423;-48
2023/05/26 00:25:18;;;;;;;;;;;;;;;20.52;68.53;98902.75;2088256;28;19970;-47
2023/05/26 00:26:18;;;;;;;;;;;;;;;20.52;68.75;98908.94;2087317;28;19979;-47
2023/05/26 00:27:20;;;;;;;;;;;;;;;20.54;68.42;98908.78;2086650;28;19982;-46
2023/05/26 00:28:20;;;;;;;;;;;;;;;20.52;68.75;98908.94;2088522;28;19921;-49
2023/05/26 00:29:22;;;;;;;;;;;;;;;20.53;68.59;98909.81;2086007;28;20358;-47
2023/05/26 00:30:23;;;;;;;;;;;;;;;20.52;68.49;98902.75;2087778;28;20574;-46
2023/05/26 00:31:25;;;;;;;;;;;;;;;20.51;68.87;98901.91;2084692;28;19932;-47
2023/05/26 00:32:25;;;;;;;;;;;;;;;20.51;68.85;98901.91;2086432;28;20387;-46
2023/05/26 00:33:27;;;;;;;;;;;;;;;20.52;68.50;98903.56;2088684;28;19929;-46
2023/05/26 00:34:27;;;;;;;;;;;;;;;20.52;68.53;98906.25;2087642;28;19920;-46
2023/05/26 00:35:29;;;;;;;;;;;;;;;20.52;68.42;98902.75;2076957;28;19924;-51
2023/05/26 00:36:29;;;;;;;;;;;;;;;20.52;68.54;98905.44;2084219;28;19933;-48
2023/05/26 00:37:32;;;;;;;;;;;;;;;20.52;68.53;98905.44;2084990;28;19920;-48
2023/05/26 00:38:32;;;;;;;;;;;;;;;20.52;68.89;98908.13;2087460;28;19935;-47
2023/05/26 00:39:35;;;;;;;;;;;;;;;20.51;68.45;98899.22;2081368;28;19924;-46
2023/05/26 00:40:36;;;;;;;;;;;;;;;20.51;68.86;98903.78;2086766;28;19936;-50
2023/05/26 00:41:37;;;;;;;;;;;;;;;20.49;68.60;98908.56;2080885;28;19935;-46
2023/05/26 00:42:38;;;;;;;;;;;;;;;20.51;68.63;98911.88;2088090;28;20278;-47
2023/05/26 00:43:39;;;;;;;;;;;;;;;20.52;68.50;98908.94;2084882;28;19929;-49
2023/05/26 00:44:40;;;;;;;;;;;;;;;20.50;68.79;98911.06;2085004;28;19935;-47
2023/05/26 00:45:43;;;;;;;;;;;;;;;20.50;68.67;98902.97;2081411;28;19928;-46
2023/05/26 00:46:43;;;;;;;;;;;;;;;20.51;68.43;98906.47;2083930;28;19981;-46
2023/05/26 00:47:45;;;;;;;;;;;;;;;20.50;68.66;98894.88;2086256;28;20488;-47
2023/05/26 00:48:46;;;;;;;;;;;;;;;20.49;68.82;98906.69;2085143;28;19924;-46
2023/05/26 00:49:47;;;;;;;;;;;;;;;20.51;68.65;98901.91;2080800;28;20315;-47
2023/05/26 00:50:47;;;;;;;;;;;;;;;20.49;68.54;98898.59;2088318;28;20358;-49
2023/05/26 00:51:49;;;;;;;;;;;;;;;20.50;68.52;98904.81;2086730;28;19950;-51
2023/05/26 00:52:51;;;;;;;;;;;;;;;20.49;68.64;98898.59;2084771;28;20455;-48
2023/05/26 00:53:52;;;;;;;;;;;;;;;20.49;68.47;98903.16;2084495;28;20444;-48
2023/05/26 00:54:53;;;;;;;;;;;;;;;20.50;68.65;98894.03;2086683;28;19967;-47
2023/05/26 00:55:55;;;;;;;;;;;;;;;20.49;68.54;98900.47;2088196;28;19924;-46
2023/05/26 00:56:56;;;;;;;;;;;;;;;20.49;68.77;98887.00;2086162;28;20465;-50
2023/05/26 00:57:57;;;;;;;;;;;;;;;20.49;68.56;98892.38;2087723;28;19932;-48
2023/05/26 00:58:58;;;;;;;;;;;;;;;20.50;68.63;98894.03;2086328;28;19924;-49
2023/05/26 01:00:00;;;;;;;;;;;;;;;20.50;68.67;98902.13;2084472;28;20508;-51
2023/05/26 01:01:01;;;;;;;;;;;;;;;20.49;68.78;98895.06;2080492;28;19962;-47
2023/05/26 01:02:03;;;;;;;;;;;;;;;20.49;68.66;98892.38;2086370;28;20046;-50
2023/05/26 01:03:04;;;;;;;;;;;;;;;20.49;68.57;98892.38;2086033;28;20008;-48
2023/05/26 01:04:05;;;;;;;;;;;;;;;20.49;68.43;98897.78;2083704;28;19928;-48
2023/05/26 01:05:06;;;;;;;;;;;;;;;20.49;68.68;98895.06;2086514;28;19981;-48
2023/05/26 01:06:08;;;;;;;;;;;;;;;20.48;68.65;98896.13;2090760;28;19985;-48
2023/05/26 01:07:09;;;;;;;;;;;;;;;20.50;68.65;98896.72;2083167;28;19985;-49
2023/05/26 01:08:10;;;;;;;;;;;;;;;20.49;68.68;98895.91;2089405;28;20013;-49
2023/05/26 01:09:11;;;;;;;;;;;;;;;20.49;68.64;98893.22;2084374;28;20382;-48
2023/05/26 01:10:12;;;;;;;;;;;;;;;20.50;68.29;98897.56;2087347;28;19971;-47
2023/05/26 01:11:15;;;;;;;;;;;;;;;20.50;68.46;98897.56;2086047;28;19929;-49
2023/05/26 01:12:22;;;;;;;;;;;;;;;20.51;68.60;98901.09;2086973;28;19928;-47
2023/05/26 01:13:25;;;;;;;;;;;;;;;20.49;68.37;98893.22;2087069;28;20046;-47
2023/05/26 01:14:29;;;;;;;;;;;;;;;20.47;68.49;98903.34;2085180;28;19928;-46
2023/05/26 01:15:32;;;;;;;;;;;;;;;20.47;68.65;98900.66;2082483;28;20027;-49
2023/05/26 01:16:39;;;;;;;;;;;;;;;20.48;68.36;98896.13;2084729;28;19940;-50
2023/05/26 01:17:44;;;;;;;;;;;;;;;20.47;68.68;98899.84;2077742;28;19963;-48
2023/05/26 01:18:46;;;;;;;;;;;;;;;20.48;68.69;98906.91;2084322;28;19928;-47
2023/05/26 01:20:01;;;;;;;;;;;;;;;20.49;68.52;98897.78;2082878;28;19948;-48
2023/05/26 01:21:05;;;;;;;;;;;;;;;20.48;68.33;98894.25;2086847;28;20306;-47
2023/05/26 01:22:17;;;;;;;;;;;;;;;20.47;68.22;98894.44;2084294;28;19928;-50
2023/05/26 01:23:27;;;;;;;;;;;;;;;20.47;68.60;98894.44;2079932;28;19928;-48
2023/05/26 01:24:37;;;;;;;;;;;;;;;20.47;68.64;98905.22;2084341;28;19920;-49
2023/05/26 01:25:56;;;;;;;;;;;;;;;20.49;68.60;98903.16;2087346;28;19966;-47
2023/05/26 01:27:04;;;;;;;;;;;;;;;20.47;68.59;98903.34;2080087;28;20029;-48
2023/05/26 01:28:09;;;;;;;;;;;;;;;20.47;68.48;98905.22;2081575;28;19929;-48
2023/05/26 01:29:12;;;;;;;;;;;;;;;20.46;68.40;98895.50;2083089;28;19935;-47
2023/05/26 01:30:12;;;;;;;;;;;;;;;20.47;68.41;98905.22;2085374;28;20411;-49
2023/05/26 01:31:15;;;;;;;;;;;;;;;20.47;68.57;98897.16;2086406;28;19974;-50
2023/05/26 01:32:16;;;;;;;;;;;;;;;20.47;68.48;98900.66;2083564;28;19931;-48
2023/05/26 01:33:17;;;;;;;;;;;;;;;20.46;68.29;98892.81;2082252;28;20734;-48
2023/05/26 01:34:18;;;;;;;;;;;;;;;20.47;68.55;98894.44;2086676;28;19965;-50
2023/05/26 01:35:19;;;;;;;;;;;;;;;20.47;68.55;98894.44;2080328;28;21447;-51
2023/05/26 01:36:20;;;;;;;;;;;;;;;20.45;68.42;98891.16;2083370;28;19928;-49
2023/05/26 01:37:21;;;;;;;;;;;;;;;20.45;68.50;98889.28;2082540;28;20007;-50
2023/05/26 01:38:22;;;;;;;;;;;;;;;20.46;68.28;98887.41;2081097;28;19958;-49
2023/05/26 01:39:23;;;;;;;;;;;;;;;20.46;68.51;98896.31;2082062;28;20440;-47
2023/05/26 01:40:24;;;;;;;;;;;;;;;20.46;68.48;98888.25;2085120;28;19929;-52
2023/05/26 01:41:27;;;;;;;;;;;;;;;20.46;68.37;98890.94;2088681;28;19920;-48
2023/05/26 01:42:29;;;;;;;;;;;;;;;20.46;68.40;98890.94;2085541;28;19924;-48
2023/05/26 01:43:39;;;;;;;;;;;;;;;20.47;68.20;98891.75;2087049;28;20022;-49
2023/05/26 01:44:43;;;;;;;;;;;;;;;20.46;68.46;98895.50;2085938;28;19974;-48
2023/05/26 01:45:46;;;;;;;;;;;;;;;20.47;68.50;98905.22;2081844;28;20294;-49
2023/05/26 01:46:49;;;;;;;;;;;;;;;20.46;68.46;98903.59;2085790;28;19962;-49
2023/05/26 01:47:52;;;;;;;;;;;;;;;20.47;68.16;98899.84;2082850;28;19928;-47
2023/05/26 01:48:56;;;;;;;;;;;;;;;20.45;68.48;98900.06;2080560;28;21375;-50
2023/05/26 01:49:57;;;;;;;;;;;;;;;20.45;68.35;98907.31;2078514;28;20429;-49
2023/05/26 01:51:00;;;;;;;;;;;;;;;20.45;68.41;98902.75;2085300;28;19930;-50
2023/05/26 01:52:01;;;;;;;;;;;;;;;20.44;68.32;98900.25;2086425;28;19973;-51
2023/05/26 01:53:05;;;;;;;;;;;;;;;20.45;68.16;98901.94;2084950;28;19921;-47
2023/05/26 01:54:07;;;;;;;;;;;;;;;20.44;68.29;98911.03;2087512;28;19936;-49
2023/05/26 01:55:11;;;;;;;;;;;;;;;20.44;68.20;98902.97;2084598;28;20023;-48
2023/05/26 01:56:12;;;;;;;;;;;;;;;20.46;68.48;98911.66;2088485;28;20433;-48
2023/05/26 01:57:14;;;;;;;;;;;;;;;20.44;68.32;98906.47;2086375;28;19920;-49
2023/05/26 01:58:15;;;;;;;;;;;;;;;20.45;68.40;98912.72;2085181;28;19950;-48
2023/05/26 01:59:19;;;;;;;;;;;;;;;20.44;68.45;98909.16;2085113;28;19925;-48
2023/05/26 02:00:23;;;;;;;;;;;;;;;20.45;68.38;98908.16;2086200;28;19924;-47
2023/05/26 02:01:25;;;;;;;;;;;;;;;20.44;68.26;98906.47;2086002;28;19929;-49
2023/05/26 02:02:25;;;;;;;;;;;;;;;20.44;68.34;98911.88;2080567;28;19932;-48
2023/05/26 02:03:27;;;;;;;;;;;;;;;20.46;68.17;98903.59;2081643;28;19954;-48
2023/05/26 02:04:27;;;;;;;;;;;;;;;20.44;68.11;98905.66;2087528;28;20516;-47
2023/05/26 02:05:29;;;;;;;;;;;;;;;20.44;68.09;98905.66;2083297;28;19998;-51
2023/05/26 02:06:30;;;;;;;;;;;;;;;20.45;68.48;98915.41;2085059;28;19920;-48
2023/05/26 02:07:32;;;;;;;;;;;;;;;20.44;68.16;98908.34;2085998;28;20397;-48
2023/05/26 02:08:33;;;;;;;;;;;;;;;20.44;68.38;98905.66;2085260;28;20686;-47
2023/05/26 02:09:35;;;;;;;;;;;;;;;20.42;68.14;98905.88;2081056;28;19928;-46
2023/05/26 02:10:35;;;;;;;;;;;;;;;20.45;68.43;98907.31;2082000;28;20030;-47
2023/05/26 02:11:37;;;;;;;;;;;;;;;20.43;68.13;98909.38;2083304;28;19932;-48
2023/05/26 02:12:37;;;;;;;;;;;;;;;20.44;68.25;98911.03;2084117;28;19960;-47
2023/05/26 02:13:39;;;;;;;;;;;;;;;20.43;68.33;98904.81;2085703;28;20377;-48
2023/05/26 02:14:41;;;;;;;;;;;;;;;20.44;68.32;98903.78;2086383;28;19927;-49
2023/05/26 02:15:42;;;;;;;;;;;;;;;20.45;68.12;98907.31;2086426;28;19925;-47
2023/05/26 02:16:43;;;;;;;;;;;;;;;20.44;68.25;98911.03;2085534;28;19965;-48
2023/05/26 02:17:47;;;;;;;;;;;;;;;20.44;68.26;98905.66;2083873;28;19934;-50
2023/05/26 02:18:48;;;;;;;;;;;;;;;20.42;68.21;98903.19;2081326;28;19959;-47
2023/05/26 02:19:49;;;;;;;;;;;;;;;20.44;68.50;98905.66;2085012;28;20057;-51
2023/05/26 02:20:50;;;;;;;;;;;;;;;20.42;68.31;98903.19;2085236;28;20530;-50
2023/05/26 02:21:51;;;;;;;;;;;;;;;20.43;68.32;98912.09;2083267;28;19966;-48
2023/05/26 02:22:51;;;;;;;;;;;;;;;20.43;68.52;98909.38;2087891;28;19955;-50
2023/05/26 02:23:53;;;;;;;;;;;;;;;20.43;68.43;98902.13;2084341;28;19936;-50
2023/05/26 02:24:53;;;;;;;;;;;;;;;20.42;68.20;98903.19;2087422;28;20341;-48
2023/05/26 02:25:55;;;;;;;;;;;;;;;20.43;68.17;98904.00;2083639;28;19932;-47
2023/05/26 02:26:55;;;;;;;;;;;;;;;20.43;68.21;98901.31;2086808;28;19924;-48
2023/05/26 02:27:57;;;;;;;;;;;;;;;20.42;68.21;98903.19;2083754;28;19978;-47
2023/05/26 02:28:57;;;;;;;;;;;;;;;20.41;68.05;98896.13;2079061;28;20017;-48
2023/05/26 02:30:00;;;;;;;;;;;;;;;20.41;68.06;98895.28;2080679;28;20813;-47
2023/05/26 02:31:01;;;;;;;;;;;;;;;20.41;68.17;98901.50;2080851;28;20035;-49
2023/05/26 02:32:02;;;;;;;;;;;;;;;20.42;68.20;98900.50;2082149;28;20011;-47
2023/05/26 02:33:03;;;;;;;;;;;;;;;20.41;68.08;98900.69;2086275;28;19970;-48
2023/05/26 02:34:05;;;;;;;;;;;;;;;20.42;68.41;98895.09;2089469;28;19925;-49
2023/05/26 02:35:06;;;;;;;;;;;;;;;20.43;68.01;98893.22;2085098;28;19973;-47
2023/05/26 02:36:08;;;;;;;;;;;;;;;20.40;68.36;98894.47;2083612;28;19932;-49
2023/05/26 02:37:08;;;;;;;;;;;;;;;20.39;68.09;98886.59;2085068;28;21756;-50
2023/05/26 02:38:10;;;;;;;;;;;;;;;20.40;68.23;98893.66;2085371;28;19928;-47
2023/05/26 02:39:10;;;;;;;;;;;;;;;20.43;68.38;98895.91;2083058;28;19928;-48
2023/05/26 02:40:12;;;;;;;;;;;;;;;20.41;68.14;98889.91;2086605;28;20860;-48
2023/05/26 02:41:13;;;;;;;;;;;;;;;20.42;68.18;98891.56;2086375;28;19969;-48
2023/05/26 02:42:14;;;;;;;;;;;;;;;20.42;68.44;98892.41;2089143;28;19974;-50
2023/05/26 02:43:15;;;;;;;;;;;;;;;20.41;68.30;98890.72;2087492;28;20001;-51
2023/05/26 02:44:16;;;;;;;;;;;;;;;20.41;68.07;98887.22;2085375;28;19928;-51
2023/05/26 02:45:18;;;;;;;;;;;;;;;20.40;68.02;98885.56;2090734;28;20467;-47
2023/05/26 02:46:20;;;;;;;;;;;;;;;20.41;68.10;98882.66;2087269;28;20019;-51
2023/05/26 02:47:20;;;;;;;;;;;;;;;20.40;68.24;98886.38;2083932;28;19929;-48
2023/05/26 02:48:22;;;;;;;;;;;;;;;20.40;68.36;98880.19;2086521;28;20455;-49
2023/05/26 02:49:23;;;;;;;;;;;;;;;20.39;68.33;98878.50;2084577;28;20695;-49
2023/05/26 02:50:24;;;;;;;;;;;;;;;20.39;68.22;98875.81;2089955;28;20005;-49
2023/05/26 02:51:25;;;;;;;;;;;;;;;20.39;68.26;98878.50;2087102;28;19928;-49
2023/05/26 02:52:27;;;;;;;;;;;;;;;20.39;68.15;98879.31;2088728;28;19924;-47
2023/05/26 02:53:27;;;;;;;;;;;;;;;20.39;68.36;98881.19;2088409;28;19924;-48
2023/05/26 02:54:29;;;;;;;;;;;;;;;20.38;68.25;98872.28;2088726;28;19978;-48
2023/05/26 02:55:30;;;;;;;;;;;;;;;20.39;68.39;98875.81;2081388;28;19942;-48
2023/05/26 02:56:32;;;;;;;;;;;;;;;20.38;68.10;98880.38;2086981;28;20007;-49
2023/05/26 02:57:32;;;;;;;;;;;;;;;20.39;68.25;98876.63;2085414;28;20021;-48
2023/05/26 02:58:34;;;;;;;;;;;;;;;20.38;68.24;98874.97;2088861;28;19952;-48
2023/05/26 02:59:34;;;;;;;;;;;;;;;20.40;68.04;98872.09;2087485;28;19978;-47
2023/05/26 03:00:37;;;;;;;;;;;;;;;20.40;68.02;98877.47;2089560;28;20721;-47
2023/05/26 03:01:37;;;;;;;;;;;;;;;20.39;68.27;98873.13;2085083;28;20478;-49
2023/05/26 03:02:39;;;;;;;;;;;;;;;20.39;68.34;98875.81;2081315;28;19935;-48
2023/05/26 03:03:41;;;;;;;;;;;;;;;20.38;68.08;98871.47;2081967;28;20525;-48
2023/05/26 03:04:41;;;;;;;;;;;;;;;20.39;68.16;98878.50;2087993;28;19920;-47
2023/05/26 03:05:43;;;;;;;;;;;;;;;20.38;68.09;98874.97;2081695;28;19924;-49
2023/05/26 03:06:43;;;;;;;;;;;;;;;20.38;68.34;98871.47;2086430;28;19921;-47
2023/05/26 03:07:45;;;;;;;;;;;;;;;20.38;68.01;98874.16;2087453;28;20329;-49
2023/05/26 03:08:45;;;;;;;;;;;;;;;20.38;68.01;98871.47;2087204;28;19929;-48
2023/05/26 03:09:47;;;;;;;;;;;;;;;20.37;68.06;98870.66;2084905;28;19947;-49
2023/05/26 03:10:47;;;;;;;;;;;;;;;20.37;68.22;98873.34;2089916;28;19981;-47
2023/05/26 03:11:48;;;;;;;;;;;;;;;20.37;67.92;98867.94;2088909;28;20370;-47
2023/05/26 03:12:49;;;;;;;;;;;;;;;20.37;67.99;98876.03;2084800;28;19936;-47
2023/05/26 03:13:50;;;;;;;;;;;;;;;20.38;68.04;98874.16;2086769;28;19921;-47
2023/05/26 03:14:51;;;;;;;;;;;;;;;20.38;68.05;98871.47;2086040;28;19932;-47
2023/05/26 03:15:54;;;;;;;;;;;;;;;20.36;67.96;98868.97;2087453;28;19932;-48
2023/05/26 03:16:56;;;;;;;;;;;;;;;20.36;68.29;98870.84;2084145;28;20704;-48
2023/05/26 03:17:57;;;;;;;;;;;;;;;20.37;68.00;98873.34;2086058;28;20820;-47
2023/05/26 03:18:57;;;;;;;;;;;;;;;20.38;67.98;98868.78;2084956;28;20412;-48
2023/05/26 03:19:59;;;;;;;;;;;;;;;20.36;68.36;98870.84;2088476;28;19928;-49
2023/05/26 03:21:00;;;;;;;;;;;;;;;20.38;68.10;98868.78;2079610;28;19929;-48
2023/05/26 03:22:01;;;;;;;;;;;;;;;20.36;68.27;98877.06;2084932;28;19985;-49
2023/05/26 03:23:02;;;;;;;;;;;;;;;20.37;68.12;98872.53;2084821;28;19920;-47
2023/05/26 03:24:03;;;;;;;;;;;;;;;20.37;68.29;98875.22;2087287;28;20031;-48
2023/05/26 03:25:04;;;;;;;;;;;;;;;20.37;68.18;98878.72;2087241;28;20599;-48
2023/05/26 03:26:06;;;;;;;;;;;;;;;20.36;68.24;98876.22;2086198;28;20005;-48
2023/05/26 03:27:08;;;;;;;;;;;;;;;20.36;67.96;98879.75;2087542;28;19920;-48
2023/05/26 03:28:09;;;;;;;;;;;;;;;20.36;68.07;98884.31;2088066;28;19928;-49
2023/05/26 03:29:11;;;;;;;;;;;;;;;20.36;68.02;98871.66;2090021;28;20540;-48
2023/05/26 03:30:12;;;;;;;;;;;;;;;20.36;67.96;98876.22;2086474;28;19928;-49
2023/05/26 03:31:14;;;;;;;;;;;;;;;20.36;68.26;98878.94;2087453;28;19928;-47
2023/05/26 03:32:16;;;;;;;;;;;;;;;20.35;68.17;98875.41;2085017;28;19931;-47
2023/05/26 03:33:16;;;;;;;;;;;;;;;20.35;68.17;98877.28;2083306;28;19924;-48
2023/05/26 03:34:18;;;;;;;;;;;;;;;20.34;68.37;98884.53;2086986;28;19978;-49
2023/05/26 03:35:19;;;;;;;;;;;;;;;20.36;67.93;98884.31;2083313;28;19924;-46
2023/05/26 03:36:20;;;;;;;;;;;;;;;20.36;67.90;98892.41;2084467;28;20016;-47
2023/05/26 03:37:21;;;;;;;;;;;;;;;20.34;67.99;98879.16;2086119;28;19979;-47
2023/05/26 03:38:22;;;;;;;;;;;;;;;20.35;67.92;98885.34;2087353;28;19924;-46
2023/05/26 03:39:22;;;;;;;;;;;;;;;20.34;68.04;98883.69;2080009;28;23558;-47
2023/05/26 03:40:24;;;;;;;;;;;;;;;20.34;68.13;98884.53;2087363;28;20417;-48
2023/05/26 03:41:25;;;;;;;;;;;;;;;20.34;67.91;98884.53;2085369;28;20304;-46
2023/05/26 03:42:26;;;;;;;;;;;;;;;20.35;68.16;98880.78;2090255;28;19928;-47
2023/05/26 03:43:27;;;;;;;;;;;;;;;20.35;67.97;98882.66;2086435;28;19950;-46
2023/05/26 03:44:29;;;;;;;;;;;;;;;20.35;67.91;98890.75;2089123;28;19964;-49
2023/05/26 03:45:29;;;;;;;;;;;;;;;20.35;67.97;98886.19;2087159;28;19920;-48
2023/05/26 03:46:32;;;;;;;;;;;;;;;20.34;68.18;98884.53;2086946;28;19925;-47
2023/05/26 03:47:33;;;;;;;;;;;;;;;20.34;67.89;98886.38;2086760;28;19963;-48
2023/05/26 03:48:34;;;;;;;;;;;;;;;20.34;67.87;98876.47;2085233;28;20485;-50
2023/05/26 03:49:35;;;;;;;;;;;;;;;20.36;68.19;98881.63;2085094;28;20510;-47
2023/05/26 03:50:37;;;;;;;;;;;;;;;20.35;68.02;98882.66;2086056;28;20016;-47
2023/05/26 03:51:38;;;;;;;;;;;;;;;20.34;68.05;98883.69;2085582;28;19928;-49
2023/05/26 03:52:39;;;;;;;;;;;;;;;20.35;68.13;98890.75;2089215;28;20566;-49
2023/05/26 03:53:41;;;;;;;;;;;;;;;20.34;67.87;98889.94;2084822;28;19967;-48
2023/05/26 03:54:43;;;;;;;;;;;;;;;20.34;68.12;98889.06;2082793;28;19971;-48
2023/05/26 03:55:43;;;;;;;;;;;;;;;20.34;67.95;98889.06;2081548;28;19981;-48
2023/05/26 03:56:45;;;;;;;;;;;;;;;20.34;68.27;98883.69;2083884;28;20002;-47
2023/05/26 03:57:45;;;;;;;;;;;;;;;20.34;68.11;98889.06;2082343;28;19923;-46
2023/05/26 03:58:47;;;;;;;;;;;;;;;20.35;68.04;98891.56;2087218;28;19955;-48
2023/05/26 03:59:48;;;;;;;;;;;;;;;20.34;67.79;98889.94;2088291;28;19925;-50
2023/05/26 04:00:50;;;;;;;;;;;;;;;20.34;68.06;98883.69;2088719;28;20393;-48
2023/05/26 04:01:52;;;;;;;;;;;;;;;20.33;67.88;98890.13;2082772;28;19950;-50
2023/05/26 04:02:53;;;;;;;;;;;;;;;20.33;67.88;98888.25;2086256;28;19935;-47
2023/05/26 04:03:53;;;;;;;;;;;;;;;20.33;67.79;98893.63;2083453;28;19951;-46
2023/05/26 04:04:55;;;;;;;;;;;;;;;20.34;67.85;98891.75;2085677;28;19966;-47
2023/05/26 04:05:57;;;;;;;;;;;;;;;20.33;68.02;98898.19;2088969;28;19928;-46
2023/05/26 04:06:58;;;;;;;;;;;;;;;20.31;68.08;98896.56;2089893;28;20874;-51
2023/05/26 04:07:59;;;;;;;;;;;;;;;20.32;68.03;98902.75;2086292;28;19932;-47
2023/05/26 04:09:03;;;;;;;;;;;;;;;20.30;68.17;98897.56;2083289;28;19959;-48
2023/05/26 04:10:05;;;;;;;;;;;;;;;20.33;67.97;98899.03;2082494;28;20855;-47
2023/05/26 04:11:06;;;;;;;;;;;;;;;20.33;67.79;98904.41;2084235;28;19927;-46
2023/05/26 04:12:07;;;;;;;;;;;;;;;20.32;68.14;98900.06;2089163;28;19932;-48
2023/05/26 04:13:08;;;;;;;;;;;;;;;20.33;67.82;98906.28;2089980;28;19933;-47
2023/05/26 04:14:09;;;;;;;;;;;;;;;20.31;68.25;98901.13;2088258;28;21512;-49
2023/05/26 04:15:10;;;;;;;;;;;;;;;20.33;68.05;98903.59;2087489;28;19928;-48
2023/05/26 04:16:11;;;;;;;;;;;;;;;20.33;67.87;98900.91;2089372;28;19925;-47
2023/05/26 04:17:14;;;;;;;;;;;;;;;20.31;68.17;98899.25;2084087;28;19928;-46
2023/05/26 04:18:14;;;;;;;;;;;;;;;20.31;68.15;98901.94;2086727;28;19925;-46
2023/05/26 04:19:16;;;;;;;;;;;;;;;20.33;67.98;98900.91;2085115;28;19924;-49
2023/05/26 04:20:16;;;;;;;;;;;;;;;20.33;67.83;98900.91;2083933;28;19925;-46
2023/05/26 04:21:18;;;;;;;;;;;;;;;20.33;68.14;98900.91;2089046;28;20988;-46
2023/05/26 04:22:18;;;;;;;;;;;;;;;20.32;67.91;98900.06;2087723;28;20324;-48
2023/05/26 04:23:20;;;;;;;;;;;;;;;20.31;68.06;98899.25;2088935;28;19990;-47
2023/05/26 04:24:20;;;;;;;;;;;;;;;20.31;67.88;98896.56;2090067;28;19929;-50
2023/05/26 04:25:24;;;;;;;;;;;;;;;20.32;67.70;98897.38;2086488;28;20010;-48
2023/05/26 04:26:32;;;;;;;;;;;;;;;20.33;67.77;98896.31;2083343;28;19929;-47
2023/05/26 04:27:35;;;;;;;;;;;;;;;20.33;67.80;98899.03;2085744;28;20734;-48
2023/05/26 04:28:35;;;;;;;;;;;;;;;20.31;67.99;98901.94;2088774;28;19924;-48
2023/05/26 04:29:38;;;;;;;;;;;;;;;20.31;67.73;98899.25;2085478;28;19929;-48
2023/05/26 04:30:39;;;;;;;;;;;;;;;20.30;67.94;98902.13;2085593;28;20438;-49
2023/05/26 04:31:42;;;;;;;;;;;;;;;20.31;67.80;98901.94;2085805;28;19928;-47
2023/05/26 04:32:44;;;;;;;;;;;;;;;20.32;68.03;98900.06;2082543;28;19931;-49
2023/05/26 04:33:45;;;;;;;;;;;;;;;20.33;67.98;98903.59;2087579;28;20380;-48
2023/05/26 04:34:46;;;;;;;;;;;;;;;20.33;67.95;98898.19;2089180;28;19969;-49
2023/05/26 04:35:47;;;;;;;;;;;;;;;20.31;67.82;98901.13;2083374;28;20544;-47
2023/05/26 04:36:48;;;;;;;;;;;;;;;20.31;67.85;98903.81;2082682;28;20682;-49
2023/05/26 04:37:50;;;;;;;;;;;;;;;20.29;67.80;98901.31;2086869;28;19974;-50
2023/05/26 04:38:54;;;;;;;;;;;;;;;20.31;67.75;98911.91;2087562;28;19997;-49
2023/05/26 04:39:56;;;;;;;;;;;;;;;20.30;68.05;98904.84;2083633;28;19920;-47
2023/05/26 04:40:57;;;;;;;;;;;;;;;20.30;67.87;98902.13;2086623;28;19921;-49
2023/05/26 04:41:59;;;;;;;;;;;;;;;20.29;67.75;98904.00;2089394;28;20007;-48
2023/05/26 04:43:00;;;;;;;;;;;;;;;20.30;68.00;98908.34;2086918;28;20405;-48
2023/05/26 04:44:01;;;;;;;;;;;;;;;20.29;67.67;98906.69;2085916;28;19924;-48
2023/05/26 04:45:02;;;;;;;;;;;;;;;20.31;67.67;98911.91;2087858;28;20551;-47
2023/05/26 04:46:04;;;;;;;;;;;;;;;20.31;67.81;98906.50;2084320;28;19932;-51
2023/05/26 04:47:08;;;;;;;;;;;;;;;20.29;67.65;98909.41;2080373;28;20460;-49
2023/05/26 04:48:12;;;;;;;;;;;;;;;20.30;67.99;98908.34;2086237;28;19966;-47
2023/05/26 04:49:12;;;;;;;;;;;;;;;20.31;67.83;98909.19;2084736;28;19963;-50
2023/05/26 04:50:16;;;;;;;;;;;;;;;20.28;67.71;98907.75;2085189;28;19928;-47
2023/05/26 04:51:16;;;;;;;;;;;;;;;20.28;67.75;98905.06;2085548;28;19932;-48
2023/05/26 04:52:18;;;;;;;;;;;;;;;20.27;67.70;98906.06;2085739;28;19929;-46
2023/05/26 04:53:18;;;;;;;;;;;;;;;20.28;67.81;98907.75;2085362;28;19970;-51
2023/05/26 04:54:20;;;;;;;;;;;;;;;20.27;67.87;98906.06;2086002;28;19966;-47
2023/05/26 04:55:20;;;;;;;;;;;;;;;20.28;67.88;98907.75;2086047;28;20082;-46
2023/05/26 04:56:22;;;;;;;;;;;;;;;20.27;67.96;98911.47;2087061;28;20477;-48
2023/05/26 04:57:23;;;;;;;;;;;;;;;20.27;67.86;98914.16;2084360;28;19928;-47
2023/05/26 04:58:24;;;;;;;;;;;;;;;20.27;67.86;98908.75;2085082;28;19927;-49
2023/05/26 04:59:26;;;;;;;;;;;;;;;20.27;67.78;98908.75;2085059;28;19962;-48
2023/05/26 05:00:31;;;;;;;;;;;;;;;20.28;67.92;98910.44;2080066;28;19982;-48
2023/05/26 05:01:32;;;;;;;;;;;;;;;20.27;67.88;98906.06;2082126;28;20533;-48
2023/05/26 05:02:33;;;;;;;;;;;;;;;20.29;67.76;98908.56;2086143;28;19928;-47
2023/05/26 05:03:36;;;;;;;;;;;;;;;20.28;67.67;98909.59;2082251;28;19981;-52
2023/05/26 05:04:37;;;;;;;;;;;;;;;20.30;67.60;98910.22;2082831;28;19921;-46
2023/05/26 05:05:38;;;;;;;;;;;;;;;20.29;67.71;98909.41;2082487;28;19973;-48
2023/05/26 05:06:39;;;;;;;;;;;;;;;20.28;67.67;98915.81;2080128;28;19931;-49
2023/05/26 05:07:40;;;;;;;;;;;;;;;20.28;67.68;98915.81;2084445;28;19921;-48
2023/05/26 05:08:41;;;;;;;;;;;;;;;20.28;67.69;98913.13;2087813;28;19982;-50
2023/05/26 05:09:41;;;;;;;;;;;;;;;20.29;67.90;98911.25;2085166;28;19932;-49
2023/05/26 05:10:43;;;;;;;;;;;;;;;20.28;68.03;98915.81;2082820;28;20920;-48
2023/05/26 05:11:44;;;;;;;;;;;;;;;20.28;67.87;98917.66;2083031;28;19992;-47
2023/05/26 05:12:45;;;;;;;;;;;;;;;20.28;67.88;98912.28;2085942;28;19999;-48
2023/05/26 05:13:45;;;;;;;;;;;;;;;20.28;67.63;98918.53;2088986;28;20344;-48
2023/05/26 05:14:47;;;;;;;;;;;;;;;20.27;67.87;98924.94;2082221;28;19924;-47
2023/05/26 05:15:47;;;;;;;;;;;;;;;20.26;67.71;98919.75;2070802;28;19925;-48
2023/05/26 05:16:49;;;;;;;;;;;;;;;20.27;67.68;98913.31;2082537;28;19920;-49
2023/05/26 05:17:49;;;;;;;;;;;;;;;20.26;67.78;98923.28;2083665;28;19924;-47
2023/05/26 05:18:53;;;;;;;;;;;;;;;20.26;68.03;98920.59;2082276;28;19925;-48
2023/05/26 05:19:53;;;;;;;;;;;;;;;20.27;67.84;98924.09;2083265;28;19979;-48
2023/05/26 05:20:56;;;;;;;;;;;;;;;20.25;67.71;98918.94;2084825;28;20643;-48
2023/05/26 05:21:57;;;;;;;;;;;;;;;20.25;67.66;98913.56;2087689;28;20467;-48